sensor_id;sensor_type;location;lat;lon;timestamp;pressure;altitude;pressure_sealevel;temperature;humidity
4617;BME280;2321;42.704;23.384;2023-07-31T00:01:01;95105.44;;;22.44;100.00
4617;BME280;2321;42.704;23.384;2023-07-31T00:03:28;95111.69;;;22.44;100.00
4617;BME280;2321;42.704;23.384;2023-07-31T00:05:55;95114.66;;;22.42;100.00
4617;BME280;2321;42.704;23.384;2023-07-31T00:08:22;95118.22;;;22.38;100.00
4617;BME280;2321;42.704;23.384;2023-07-31T00:10:51;95117.94;;;22.34;100.00
4617;BME280;2321;42.704;23.384;2023-07-31T00:13:18;95118.47;;;22.31;100.00
4617;BME280;2321;42.704;23.384;2023-07-31T00:15:47;95115.25;;;22.29;100.00
4617;BME280;2321;42.704;23.384;2023-07-31T00:18:14;95115.78;;;22.26;100.00
4617;BME280;2321;42.704;23.384;2023-07-31T00:20:41;95113.09;;;22.26;100.00
4617;BME280;2321;42.704;23.384;2023-07-31T00:23:08;95103.88;;;22.22;100.00
4617;BME280;2321;42.704;23.384;2023-07-31T00:25:35;95101.97;;;22.22;100.00
4617;BME280;2321;42.704;23.384;2023-07-31T00:28:02;95104.38;;;22.24;100.00
4617;BME280;2321;42.704;23.384;2023-07-31T00:30:29;95104.38;;;22.24;100.00
4617;BME280;2321;42.704;23.384;2023-07-31T00:32:57;95096.81;;;22.20;100.00
4617;BME280;2321;42.704;23.384;2023-07-31T00:35:24;95077.84;;;22.26;100.00
4617;BME280;2321;42.704;23.384;2023-07-31T00:37:51;95070.53;;;22.26;100.00
4617;BME280;2321;42.704;23.384;2023-07-31T00:40:17;95068.03;;;22.30;100.00
4617;BME280;2321;42.704;23.384;2023-07-31T00:42:44;95053.16;;;22.27;100.00
4617;BME280;2321;42.704;23.384;2023-07-31T00:45:11;95065.34;;;22.25;100.00
4617;BME280;2321;42.704;23.384;2023-07-31T00:47:38;95068.63;;;22.16;100.00
4617;BME280;2321;42.704;23.384;2023-07-31T00:50:08;95074.88;;;22.12;100.00
4617;BME280;2321;42.704;23.384;2023-07-31T00:52:35;95076.78;;;22.06;100.00
4617;BME280;2321;42.704;23.384;2023-07-31T00:55:02;95084.41;;;21.98;100.00
4617;BME280;2321;42.704;23.384;2023-07-31T00:57:30;95083.03;;;21.96;100.00
4617;BME280;2321;42.704;23.384;2023-07-31T00:59:58;95073.00;;;21.96;100.00
4617;BME280;2321;42.704;23.384;2023-07-31T01:02:25;95067.59;;;21.91;100.00
4617;BME280;2321;42.704;23.384;2023-07-31T01:04:52;95062.69;;;21.88;100.00
4617;BME280;2321;42.704;23.384;2023-07-31T01:07:25;95058.63;;;21.85;100.00
4617;BME280;2321;42.704;23.384;2023-07-31T01:10:01;95066.53;;;21.92;100.00
4617;BME280;2321;42.704;23.384;2023-07-31T01:12:31;95062.69;;;21.88;100.00
4617;BME280;2321;42.704;23.384;2023-07-31T01:15:08;95070.53;;;21.84;100.00
4617;BME280;2321;42.704;23.384;2023-07-31T01:17:36;95058.38;;;21.76;100.00
4617;BME280;2321;42.704;23.384;2023-07-31T01:20:05;95057.03;;;21.74;100.00
4617;BME280;2321;42.704;23.384;2023-07-31T01:22:54;95053.47;;;21.68;100.00
4617;BME280;2321;42.704;23.384;2023-07-31T01:25:45;95049.44;;;21.65;100.00
4617;BME280;2321;42.704;23.384;2023-07-31T01:28:14;95048.09;;;21.58;100.00
4617;BME280;2321;42.704;23.384;2023-07-31T01:30:47;95048.34;;;21.51;100.00
4617;BME280;2321;42.704;23.384;2023-07-31T01:33:15;95044.31;;;21.48;100.00
4617;BME280;2321;42.704;23.384;2023-07-31T01:35:44;95043.22;;;21.44;100.00
4617;BME280;2321;42.704;23.384;2023-07-31T01:38:11;95038.06;;;21.42;100.00
4617;BME280;2321;42.704;23.384;2023-07-31T01:40:41;95051.34;;;21.44;100.00
4617;BME280;2321;42.704;23.384;2023-07-31T01:43:09;95049.97;;;21.41;100.00
4617;BME280;2321;42.704;23.384;2023-07-31T01:45:36;95038.09;;;21.37;100.00
4617;BME280;2321;42.704;23.384;2023-07-31T01:48:03;95044.56;;;21.31;100.00
4617;BME280;2321;42.704;23.384;2023-07-31T01:50:30;95046.72;;;21.29;100.00
4617;BME280;2321;42.704;23.384;2023-07-31T01:52:57;95050.50;;;21.22;100.00
4617;BME280;2321;42.704;23.384;2023-07-31T01:55:24;95049.16;;;21.20;100.00
4617;BME280;2321;42.704;23.384;2023-07-31T01:57:51;95055.94;;;21.17;100.00
4617;BME280;2321;42.704;23.384;2023-07-31T02:00:20;95055.94;;;21.17;100.00
4617;BME280;2321;42.704;23.384;2023-07-31T02:02:47;95054.03;;;21.18;100.00
4617;BME280;2321;42.704;23.384;2023-07-31T02:05:13;95064.56;;;21.19;100.00
4617;BME280;2321;42.704;23.384;2023-07-31T02:07:40;95063.25;;;21.22;100.00
4617;BME280;2321;42.704;23.384;2023-07-31T02:10:07;95065.13;;;21.16;100.00
4617;BME280;2321;42.704;23.384;2023-07-31T02:12:34;95071.06;;;21.13;100.00
4617;BME280;2321;42.704;23.384;2023-07-31T02:15:01;95074.06;;;21.11;100.00
4617;BME280;2321;42.704;23.384;2023-07-31T02:17:29;95074.31;;;21.05;100.00
4617;BME280;2321;42.704;23.384;2023-07-31T02:19:56;95069.41;;;21.01;100.00
4617;BME280;2321;42.704;23.384;2023-07-31T02:22:23;95079.69;;;20.99;100.00
4617;BME280;2321;42.704;23.384;2023-07-31T02:24:50;95072.91;;;20.97;100.00
4617;BME280;2321;42.704;23.384;2023-07-31T02:27:17;95077.50;;;20.96;100.00
4617;BME280;2321;42.704;23.384;2023-07-31T02:29:43;95077.75;;;20.95;100.00
4617;BME280;2321;42.704;23.384;2023-07-31T02:32:10;95073.44;;;20.94;100.00
4617;BME280;2321;42.704;23.384;2023-07-31T02:34:38;95073.44;;;20.94;100.00
4617;BME280;2321;42.704;23.384;2023-07-31T02:37:05;95068.56;;;20.96;100.00
4617;BME280;2321;42.704;23.384;2023-07-31T02:39:32;95069.41;;;20.96;100.00
4617;BME280;2321;42.704;23.384;2023-07-31T02:41:59;95072.91;;;21.02;100.00
4617;BME280;2321;42.704;23.384;2023-07-31T02:44:26;95073.50;;;21.04;100.00
4617;BME280;2321;42.704;23.384;2023-07-31T02:46:53;95072.41;;;21.10;100.00
4617;BME280;2321;42.704;23.384;2023-07-31T02:49:20;95071.63;;;21.20;100.00
4617;BME280;2321;42.704;23.384;2023-07-31T02:51:48;95085.44;;;21.24;100.00
4617;BME280;2321;42.704;23.384;2023-07-31T02:54:15;95085.44;;;21.24;100.00
4617;BME280;2321;42.704;23.384;2023-07-31T02:56:42;95094.09;;;21.26;100.00
4617;BME280;2321;42.704;23.384;2023-07-31T02:59:09;95085.97;;;21.26;100.00
4617;BME280;2321;42.704;23.384;2023-07-31T03:01:36;95097.09;;;21.30;100.00
4617;BME280;2321;42.704;23.384;2023-07-31T03:04:03;95091.13;;;21.33;100.00
4617;BME280;2321;42.704;23.384;2023-07-31T03:06:30;95095.19;;;21.36;100.00
4617;BME280;2321;42.704;23.384;2023-07-31T03:08:58;95082.72;;;21.29;100.00
4617;BME280;2321;42.704;23.384;2023-07-31T03:11:25;95087.06;;;21.30;100.00
4617;BME280;2321;42.704;23.384;2023-07-31T03:13:53;95093.84;;;21.33;100.00
4617;BME280;2321;42.704;23.384;2023-07-31T03:16:19;95077.84;;;21.31;100.00
4617;BME280;2321;42.704;23.384;2023-07-31T03:18:46;95091.13;;;21.33;100.00
4617;BME280;2321;42.704;23.384;2023-07-31T03:21:14;95100.63;;;21.36;100.00
4617;BME280;2321;42.704;23.384;2023-07-31T03:23:41;95101.44;;;21.36;100.00
4617;BME280;2321;42.704;23.384;2023-07-31T03:26:10;95100.38;;;21.37;100.00
4617;BME280;2321;42.704;23.384;2023-07-31T03:28:37;95099.25;;;21.33;100.00
4617;BME280;2321;42.704;23.384;2023-07-31T03:31:04;95072.44;;;21.21;100.00
4617;BME280;2321;42.704;23.384;2023-07-31T03:33:30;95100.63;;;21.36;100.00
4617;BME280;2321;42.704;23.384;2023-07-31T03:35:57;95095.72;;;21.38;100.00
4617;BME280;2321;42.704;23.384;2023-07-31T03:38:24;95106.31;;;21.44;100.00
4617;BME280;2321;42.704;23.384;2023-07-31T03:40:51;95111.72;;;21.50;100.00
4617;BME280;2321;42.704;23.384;2023-07-31T03:43:19;95107.41;;;21.54;100.00
4617;BME280;2321;42.704;23.384;2023-07-31T03:45:46;95101.72;;;21.61;100.00
4617;BME280;2321;42.704;23.384;2023-07-31T03:48:14;95109.31;;;21.64;100.00
4617;BME280;2321;42.704;23.384;2023-07-31T03:50:41;95108.22;;;21.65;100.00
4617;BME280;2321;42.704;23.384;2023-07-31T03:53:07;95115.00;;;21.68;100.00
4617;BME280;2321;42.704;23.384;2023-07-31T03:55:34;95119.59;;;21.67;100.00
4617;BME280;2321;42.704;23.384;2023-07-31T03:58:01;95116.34;;;21.60;100.00
4617;BME280;2321;42.704;23.384;2023-07-31T04:00:29;95115.81;;;21.58;100.00
4617;BME280;2321;42.704;23.384;2023-07-31T04:02:56;95122.56;;;21.60;100.00
4617;BME280;2321;42.704;23.384;2023-07-31T04:05:23;95123.38;;;21.61;100.00
4617;BME280;2321;42.704;23.384;2023-07-31T04:07:50;95121.22;;;21.63;100.00
4617;BME280;2321;42.704;23.384;2023-07-31T04:10:17;95126.38;;;21.70;100.00
4617;BME280;2321;42.704;23.384;2023-07-31T04:12:44;95120.41;;;21.73;100.00
4617;BME280;2321;42.704;23.384;2023-07-31T04:15:10;95120.69;;;21.76;100.00
4617;BME280;2321;42.704;23.384;2023-07-31T04:17:39;95129.34;;;21.79;100.00
4617;BME280;2321;42.704;23.384;2023-07-31T04:20:06;95134.78;;;21.79;100.00
4617;BME280;2321;42.704;23.384;2023-07-31T04:22:33;95127.19;;;21.75;100.00
4617;BME280;2321;42.704;23.384;2023-07-31T04:25:00;95133.97;;;21.68;100.00
4617;BME280;2321;42.704;23.384;2023-07-31T04:27:27;95126.91;;;21.66;100.00
4617;BME280;2321;42.704;23.384;2023-07-31T04:29:54;95129.34;;;21.73;100.00
4617;BME280;2321;42.704;23.384;2023-07-31T04:32:20;95137.75;;;21.77;100.00
4617;BME280;2321;42.704;23.384;2023-07-31T04:34:49;95135.31;;;21.81;100.00
4617;BME280;2321;42.704;23.384;2023-07-31T04:37:15;95131.81;;;21.80;100.00
4617;BME280;2321;42.704;23.384;2023-07-31T04:39:42;95137.47;;;21.79;100.00
4617;BME280;2321;42.704;23.384;2023-07-31T04:42:09;95136.66;;;21.73;100.00
4617;BME280;2321;42.704;23.384;2023-07-31T04:44:36;95141.28;;;21.67;100.00
4617;BME280;2321;42.704;23.384;2023-07-31T04:47:03;95143.97;;;21.67;100.00
4617;BME280;2321;42.704;23.384;2023-07-31T04:49:30;95141.00;;;21.69;100.00
4617;BME280;2321;42.704;23.384;2023-07-31T04:51:58;95139.09;;;21.64;100.00
4617;BME280;2321;42.704;23.384;2023-07-31T04:54:25;95136.94;;;21.61;100.00
4617;BME280;2321;42.704;23.384;2023-07-31T04:56:52;95139.38;;;21.68;100.00
4617;BME280;2321;42.704;23.384;2023-07-31T04:59:19;95136.13;;;21.71;100.00
4617;BME280;2321;42.704;23.384;2023-07-31T05:01:45;95143.44;;;21.70;100.00
4617;BME280;2321;42.704;23.384;2023-07-31T05:04:13;95141.53;;;21.65;100.00
4617;BME280;2321;42.704;23.384;2023-07-31T05:06:40;95137.22;;;21.64;100.00
4617;BME280;2321;42.704;23.384;2023-07-31T05:09:08;95131.78;;;21.64;100.00
4617;BME280;2321;42.704;23.384;2023-07-31T05:11:36;95130.97;;;21.64;100.00
4617;BME280;2321;42.704;23.384;2023-07-31T05:14:02;95133.97;;;21.68;100.00
4617;BME280;2321;42.704;23.384;2023-07-31T05:16:29;95134.75;;;21.68;100.00
4617;BME280;2321;42.704;23.384;2023-07-31T05:18:56;95134.25;;;21.76;100.00
4617;BME280;2321;42.704;23.384;2023-07-31T05:21:23;95137.75;;;21.87;100.00
4617;BME280;2321;42.704;23.384;2023-07-31T05:23:50;95131.53;;;21.97;100.00
4617;BME280;2321;42.704;23.384;2023-07-31T05:26:18;95122.59;;;22.07;100.00
4617;BME280;2321;42.704;23.384;2023-07-31T05:28:45;95127.72;;;22.19;100.00
4617;BME280;2321;42.704;23.384;2023-07-31T05:31:12;95114.69;;;22.27;100.00
4617;BME280;2321;42.704;23.384;2023-07-31T05:33:39;95121.19;;;22.36;100.00
4617;BME280;2321;42.704;23.384;2023-07-31T05:36:06;95120.09;;;22.48;100.00
4617;BME280;2321;42.704;23.384;2023-07-31T05:38:32;95122.72;;;22.63;100.00
4617;BME280;2321;42.704;23.384;2023-07-31T05:40:59;95128.97;;;22.69;100.00
4617;BME280;2321;42.704;23.384;2023-07-31T05:43:27;95124.63;;;22.68;100.00
4617;BME280;2321;42.704;23.384;2023-07-31T05:45:54;95126.84;;;22.56;100.00
4617;BME280;2321;42.704;23.384;2023-07-31T05:48:21;95139.59;;;22.50;100.00
4617;BME280;2321;42.704;23.384;2023-07-31T05:50:48;95124.41;;;22.49;100.00
4617;BME280;2321;42.704;23.384;2023-07-31T05:53:15;95125.50;;;22.48;100.00
4617;BME280;2321;42.704;23.384;2023-07-31T05:55:42;95122.78;;;22.53;100.00
4617;BME280;2321;42.704;23.384;2023-07-31T05:58:08;95127.91;;;22.55;100.00
4617;BME280;2321;42.704;23.384;2023-07-31T06:00:37;95132.81;;;22.52;100.00
4617;BME280;2321;42.704;23.384;2023-07-31T06:03:04;95137.38;;;22.57;100.00
4617;BME280;2321;42.704;23.384;2023-07-31T06:05:30;95134.69;;;22.62;100.00
4617;BME280;2321;42.704;23.384;2023-07-31T06:07:57;95139.28;;;22.72;100.00
4617;BME280;2321;42.704;23.384;2023-07-31T06:10:23;95140.09;;;22.78;100.00
4617;BME280;2321;42.704;23.384;2023-07-31T06:12:50;95143.59;;;22.79;100.00
4617;BME280;2321;42.704;23.384;2023-07-31T06:15:17;95140.88;;;22.79;100.00
4617;BME280;2321;42.704;23.384;2023-07-31T06:17:46;95138.97;;;22.79;100.00
4617;BME280;2321;42.704;23.384;2023-07-31T06:20:13;95137.06;;;22.85;100.00
4617;BME280;2321;42.704;23.384;2023-07-31T06:22:40;95137.59;;;22.87;100.00
4617;BME280;2321;42.704;23.384;2023-07-31T06:25:07;95140.00;;;22.94;100.00
4617;BME280;2321;42.704;23.384;2023-07-31T06:27:34;95138.31;;;23.03;100.00
4617;BME280;2321;42.704;23.384;2023-07-31T06:30:01;95141.56;;;23.11;100.00
4617;BME280;2321;42.704;23.384;2023-07-31T06:32:27;95140.72;;;23.21;100.00
4617;BME280;2321;42.704;23.384;2023-07-31T06:34:56;95143.63;;;23.29;100.00
4617;BME280;2321;42.704;23.384;2023-07-31T06:37:23;95137.13;;;23.25;100.00
4617;BME280;2321;42.704;23.384;2023-07-31T06:39:49;95137.13;;;23.25;100.00
4617;BME280;2321;42.704;23.384;2023-07-31T06:42:16;95123.56;;;23.25;100.00
4617;BME280;2321;42.704;23.384;2023-07-31T06:44:43;95137.66;;;23.33;100.00
4617;BME280;2321;42.704;23.384;2023-07-31T06:47:10;95138.72;;;23.32;100.00
4617;BME280;2321;42.704;23.384;2023-07-31T06:49:37;95145.28;;;23.31;100.00
4617;BME280;2321;42.704;23.384;2023-07-31T06:52:06;95132.19;;;23.38;100.00
4617;BME280;2321;42.704;23.384;2023-07-31T06:54:33;95136.47;;;23.44;100.00
4617;BME280;2321;42.704;23.384;2023-07-31T06:57:00;95142.97;;;23.54;100.00
4617;BME280;2321;42.704;23.384;2023-07-31T06:59:26;95143.50;;;23.50;100.00
4617;BME280;2321;42.704;23.384;2023-07-31T07:01:53;95151.72;;;23.40;100.00
4617;BME280;2321;42.704;23.384;2023-07-31T07:04:20;95139.81;;;23.36;100.00
4617;BME280;2321;42.704;23.384;2023-07-31T07:06:47;95142.00;;;23.28;100.00
4617;BME280;2321;42.704;23.384;2023-07-31T07:09:15;95143.38;;;23.26;100.00
4617;BME280;2321;42.704;23.384;2023-07-31T07:11:42;95136.31;;;23.30;100.00
4617;BME280;2321;42.704;23.384;2023-07-31T07:14:09;95136.84;;;23.32;100.00
4617;BME280;2321;42.704;23.384;2023-07-31T07:16:36;95137.66;;;23.33;100.00
4617;BME280;2321;42.704;23.384;2023-07-31T07:19:03;95145.50;;;23.39;100.00
4617;BME280;2321;42.704;23.384;2023-07-31T07:21:30;95142.44;;;23.51;100.00
4617;BME280;2321;42.704;23.384;2023-07-31T07:23:56;95156.50;;;23.64;99.25
4617;BME280;2321;42.704;23.384;2023-07-31T07:26:25;95147.25;;;23.65;98.01
4617;BME280;2321;42.704;23.384;2023-07-31T07:28:54;95147.22;;;23.70;97.80
4617;BME280;2321;42.704;23.384;2023-07-31T07:31:21;95145.03;;;23.72;97.77
4617;BME280;2321;42.704;23.384;2023-07-31T07:33:47;95152.50;;;23.86;97.58
4617;BME280;2321;42.704;23.384;2023-07-31T07:36:39;95137.75;;;23.98;96.54
4617;BME280;2321;42.704;23.384;2023-07-31T07:39:06;95136.00;;;24.12;94.30
4617;BME280;2321;42.704;23.384;2023-07-31T07:41:37;95142.38;;;24.27;92.67
4617;BME280;2321;42.704;23.384;2023-07-31T07:44:12;95141.25;;;24.33;88.79
4617;BME280;2321;42.704;23.384;2023-07-31T07:46:45;95147.00;;;24.26;90.72
4617;BME280;2321;42.704;23.384;2023-07-31T07:49:15;95146.72;;;24.28;89.77
4617;BME280;2321;42.704;23.384;2023-07-31T07:51:42;95147.19;;;24.41;89.34
4617;BME280;2321;42.704;23.384;2023-07-31T07:54:09;95154.66;;;24.54;88.56
4617;BME280;2321;42.704;23.384;2023-07-31T07:56:40;95153.41;;;24.71;87.49
4617;BME280;2321;42.704;23.384;2023-07-31T07:59:06;95151.00;;;24.89;86.07
4617;BME280;2321;42.704;23.384;2023-07-31T08:01:33;95150.34;;;24.97;81.35
4617;BME280;2321;42.704;23.384;2023-07-31T08:04:00;95140.41;;;24.87;79.34
4617;BME280;2321;42.704;23.384;2023-07-31T08:06:27;95152.34;;;24.91;81.26
4617;BME280;2321;42.704;23.384;2023-07-31T08:08:55;95150.09;;;24.99;83.85
4617;BME280;2321;42.704;23.384;2023-07-31T08:11:22;95154.56;;;25.14;80.25
4617;BME280;2321;42.704;23.384;2023-07-31T08:13:50;95151.16;;;25.22;78.81
4617;BME280;2321;42.704;23.384;2023-07-31T08:16:17;95147.84;;;25.26;76.81
4617;BME280;2321;42.704;23.384;2023-07-31T08:18:44;95156.03;;;25.26;76.74
4617;BME280;2321;42.704;23.384;2023-07-31T08:21:10;95147.56;;;25.27;78.00
4617;BME280;2321;42.704;23.384;2023-07-31T08:23:37;95156.50;;;25.33;75.28
4617;BME280;2321;42.704;23.384;2023-07-31T08:26:04;95154.41;;;25.44;75.07
4617;BME280;2321;42.704;23.384;2023-07-31T08:28:31;95152.56;;;25.39;73.79
4617;BME280;2321;42.704;23.384;2023-07-31T08:30:59;95157.59;;;25.32;74.55
4617;BME280;2321;42.704;23.384;2023-07-31T08:33:26;95153.75;;;25.33;74.23
4617;BME280;2321;42.704;23.384;2023-07-31T08:35:53;95148.81;;;25.35;73.95
4617;BME280;2321;42.704;23.384;2023-07-31T08:38:20;95139.97;;;25.43;73.13
4617;BME280;2321;42.704;23.384;2023-07-31T08:40:50;95144.91;;;25.61;74.15
4617;BME280;2321;42.704;23.384;2023-07-31T08:43:18;95149.28;;;25.81;70.04
4617;BME280;2321;42.704;23.384;2023-07-31T08:45:47;95154.47;;;25.97;69.13
4617;BME280;2321;42.704;23.384;2023-07-31T08:48:17;95148.25;;;26.10;68.27
4617;BME280;2321;42.704;23.384;2023-07-31T08:50:44;95150.22;;;26.24;65.47
4617;BME280;2321;42.704;23.384;2023-07-31T08:53:12;95145.34;;;26.21;65.92
4617;BME280;2321;42.704;23.384;2023-07-31T08:55:40;95158.34;;;26.10;66.01
4617;BME280;2321;42.704;23.384;2023-07-31T08:58:07;95143.47;;;26.02;67.99
4617;BME280;2321;42.704;23.384;2023-07-31T09:00:35;95144.63;;;26.15;66.76
4617;BME280;2321;42.704;23.384;2023-07-31T09:03:08;95140.91;;;26.25;64.67
4617;BME280;2321;42.704;23.384;2023-07-31T09:05:39;95140.50;;;26.32;64.60
4617;BME280;2321;42.704;23.384;2023-07-31T09:08:09;95146.06;;;26.27;65.73
4617;BME280;2321;42.704;23.384;2023-07-31T09:10:40;95136.69;;;26.33;65.13
4617;BME280;2321;42.704;23.384;2023-07-31T09:13:08;95140.03;;;26.44;63.40
4617;BME280;2321;42.704;23.384;2023-07-31T09:15:35;95147.47;;;26.58;63.32
4617;BME280;2321;42.704;23.384;2023-07-31T09:18:03;95129.88;;;26.64;62.50
4617;BME280;2321;42.704;23.384;2023-07-31T09:20:31;95138.84;;;26.79;60.79
4617;BME280;2321;42.704;23.384;2023-07-31T09:23:06;95127.34;;;26.82;60.40
4617;BME280;2321;42.704;23.384;2023-07-31T09:25:34;95135.41;;;26.87;61.19
4617;BME280;2321;42.704;23.384;2023-07-31T09:28:02;95126.69;;;26.99;60.69
4617;BME280;2321;42.704;23.384;2023-07-31T09:30:29;95121.94;;;27.05;60.34
4617;BME280;2321;42.704;23.384;2023-07-31T09:33:02;95129.72;;;27.12;59.73
4617;BME280;2321;42.704;23.384;2023-07-31T09:35:31;95132.16;;;27.13;59.74
4617;BME280;2321;42.704;23.384;2023-07-31T09:38:00;95126.94;;;27.17;60.09
4617;BME280;2321;42.704;23.384;2023-07-31T09:40:30;95119.22;;;27.19;59.33
4617;BME280;2321;42.704;23.384;2023-07-31T09:42:58;95120.34;;;27.18;59.09
4617;BME280;2321;42.704;23.384;2023-07-31T09:45:25;95120.41;;;27.13;59.07
4617;BME280;2321;42.704;23.384;2023-07-31T09:47:53;95119.03;;;27.01;59.95
4617;BME280;2321;42.704;23.384;2023-07-31T09:50:21;95089.50;;;26.89;60.06
4617;BME280;2321;42.704;23.384;2023-07-31T09:52:49;95107.97;;;27.06;60.10
4617;BME280;2321;42.704;23.384;2023-07-31T09:55:16;95110.59;;;27.12;58.87
4617;BME280;2321;42.704;23.384;2023-07-31T09:57:46;95112.97;;;27.04;58.47
4617;BME280;2321;42.704;23.384;2023-07-31T10:00:15;95108.09;;;27.01;58.77
4617;BME280;2321;42.704;23.384;2023-07-31T10:02:45;95102.63;;;27.01;58.22
4617;BME280;2321;42.704;23.384;2023-07-31T10:05:13;95104.69;;;26.95;58.20
4617;BME280;2321;42.704;23.384;2023-07-31T10:07:42;95092.72;;;26.91;57.65
4617;BME280;2321;42.704;23.384;2023-07-31T10:10:10;95105.19;;;26.83;58.08
4617;BME280;2321;42.704;23.384;2023-07-31T10:12:38;95111.06;;;26.76;56.86
4617;BME280;2321;42.704;23.384;2023-07-31T10:15:08;95107.72;;;26.80;57.52
4617;BME280;2321;42.704;23.384;2023-07-31T10:17:38;95104.75;;;26.90;55.95
4617;BME280;2321;42.704;23.384;2023-07-31T10:20:06;95105.66;;;27.00;56.49
4617;BME280;2321;42.704;23.384;2023-07-31T10:22:37;95101.19;;;27.18;56.07
4617;BME280;2321;42.704;23.384;2023-07-31T10:25:07;95098.53;;;27.27;56.08
4617;BME280;2321;42.704;23.384;2023-07-31T10:27:35;95103.72;;;27.28;54.84
4617;BME280;2321;42.704;23.384;2023-07-31T10:30:04;95096.44;;;27.24;54.04
4617;BME280;2321;42.704;23.384;2023-07-31T10:32:33;95100.72;;;27.16;53.66
4617;BME280;2321;42.704;23.384;2023-07-31T10:35:03;95099.47;;;27.08;53.64
4617;BME280;2321;42.704;23.384;2023-07-31T10:37:37;95097.88;;;27.07;54.01
4617;BME280;2321;42.704;23.384;2023-07-31T10:40:13;95095.88;;;26.98;52.43
4617;BME280;2321;42.704;23.384;2023-07-31T10:42:46;95086.06;;;26.97;52.44
4617;BME280;2321;42.704;23.384;2023-07-31T10:45:31;95089.06;;;27.10;52.90
4617;BME280;2321;42.704;23.384;2023-07-31T10:48:00;95081.72;;;27.34;53.05
4617;BME280;2321;42.704;23.384;2023-07-31T10:50:28;95089.97;;;27.57;52.83
4617;BME280;2321;42.704;23.384;2023-07-31T10:52:58;95083.31;;;27.72;50.97
4617;BME280;2321;42.704;23.384;2023-07-31T10:55:28;95079.34;;;27.78;51.66
4617;BME280;2321;42.704;23.384;2023-07-31T10:57:56;95089.06;;;27.84;50.14
4617;BME280;2321;42.704;23.384;2023-07-31T11:00:26;95079.22;;;27.83;50.72
4617;BME280;2321;42.704;23.384;2023-07-31T11:03:01;95071.69;;;27.89;51.12
4617;BME280;2321;42.704;23.384;2023-07-31T11:05:49;95082.72;;;28.07;50.08
4617;BME280;2321;42.704;23.384;2023-07-31T11:08:20;95073.31;;;28.22;49.92
4617;BME280;2321;42.704;23.384;2023-07-31T11:10:48;95072.25;;;28.32;48.08
4617;BME280;2321;42.704;23.384;2023-07-31T11:13:17;95063.38;;;28.26;48.55
4617;BME280;2321;42.704;23.384;2023-07-31T11:15:44;95053.22;;;28.27;48.65
4617;BME280;2321;42.704;23.384;2023-07-31T11:18:13;95064.59;;;28.52;48.77
4617;BME280;2321;42.704;23.384;2023-07-31T11:20:42;95072.38;;;28.68;47.62
4617;BME280;2321;42.704;23.384;2023-07-31T11:23:10;95062.59;;;28.85;46.80
4617;BME280;2321;42.704;23.384;2023-07-31T11:25:38;95059.22;;;28.88;45.88
4617;BME280;2321;42.704;23.384;2023-07-31T11:28:08;95054.69;;;28.83;45.89
4617;BME280;2321;42.704;23.384;2023-07-31T11:30:36;95068.56;;;28.87;46.44
4617;BME280;2321;42.704;23.384;2023-07-31T11:33:04;95059.06;;;28.84;45.66
4617;BME280;2321;42.704;23.384;2023-07-31T11:35:34;95068.53;;;28.78;45.20
4617;BME280;2321;42.704;23.384;2023-07-31T11:38:02;95069.50;;;28.64;45.32
4617;BME280;2321;42.704;23.384;2023-07-31T11:40:29;95059.75;;;28.49;45.54
4617;BME280;2321;42.704;23.384;2023-07-31T11:42:57;95053.91;;;28.42;46.59
4617;BME280;2321;42.704;23.384;2023-07-31T11:45:26;95053.75;;;28.47;45.39
4617;BME280;2321;42.704;23.384;2023-07-31T11:47:55;95061.56;;;28.54;46.33
4617;BME280;2321;42.704;23.384;2023-07-31T11:50:23;95058.22;;;28.66;46.65
4617;BME280;2321;42.704;23.384;2023-07-31T11:52:56;95048.72;;;28.81;45.74
4617;BME280;2321;42.704;23.384;2023-07-31T11:55:24;95050.19;;;28.96;46.42
4617;BME280;2321;42.704;23.384;2023-07-31T11:57:56;95059.28;;;29.14;45.11
4617;BME280;2321;42.704;23.384;2023-07-31T12:00:24;95056.19;;;29.07;45.51
4617;BME280;2321;42.704;23.384;2023-07-31T12:02:57;95060.53;;;28.99;45.62
4617;BME280;2321;42.704;23.384;2023-07-31T12:05:24;95051.03;;;28.97;45.21
4617;BME280;2321;42.704;23.384;2023-07-31T12:07:55;95048.59;;;28.95;45.10
4617;BME280;2321;42.704;23.384;2023-07-31T12:10:24;95044.72;;;28.96;45.66
4617;BME280;2321;42.704;23.384;2023-07-31T12:13:03;95045.75;;;29.18;45.11
4617;BME280;2321;42.704;23.384;2023-07-31T12:15:40;95036.69;;;29.44;44.24
4617;BME280;2321;42.704;23.384;2023-07-31T12:18:08;95032.34;;;29.61;44.62
4617;BME280;2321;42.704;23.384;2023-07-31T12:20:44;95025.72;;;29.71;43.84
4617;BME280;2321;42.704;23.384;2023-07-31T12:23:17;95032.66;;;29.77;43.82
4617;BME280;2321;42.704;23.384;2023-07-31T12:26:00;95024.75;;;29.76;44.78
4617;BME280;2321;42.704;23.384;2023-07-31T12:28:32;95036.19;;;29.69;44.14
4617;BME280;2321;42.704;23.384;2023-07-31T12:31:03;95033.28;;;29.56;44.95
4617;BME280;2321;42.704;23.384;2023-07-31T12:33:33;95032.63;;;29.59;44.53
4617;BME280;2321;42.704;23.384;2023-07-31T12:36:01;95028.47;;;29.62;45.02
4617;BME280;2321;42.704;23.384;2023-07-31T12:38:30;95023.75;;;29.63;43.98
4617;BME280;2321;42.704;23.384;2023-07-31T12:40:57;95023.94;;;29.66;44.34
4617;BME280;2321;42.704;23.384;2023-07-31T12:43:24;95020.38;;;29.84;44.37
4617;BME280;2321;42.704;23.384;2023-07-31T12:45:51;95014.72;;;29.89;43.21
4617;BME280;2321;42.704;23.384;2023-07-31T12:48:18;95026.03;;;29.78;43.21
4617;BME280;2321;42.704;23.384;2023-07-31T12:50:45;95027.97;;;29.51;44.50
4617;BME280;2321;42.704;23.384;2023-07-31T12:53:12;95015.13;;;29.25;44.69
4617;BME280;2321;42.704;23.384;2023-07-31T12:55:40;95014.59;;;28.96;45.66
4617;BME280;2321;42.704;23.384;2023-07-31T12:58:07;95014.75;;;28.73;46.15
4617;BME280;2321;42.704;23.384;2023-07-31T13:00:34;95011.47;;;28.62;46.63
4617;BME280;2321;42.704;23.384;2023-07-31T13:03:01;95007.59;;;28.54;47.00
4617;BME280;2321;42.704;23.384;2023-07-31T13:05:31;94999.06;;;28.56;46.26
4617;BME280;2321;42.704;23.384;2023-07-31T13:07:58;95001.50;;;28.66;46.31
4617;BME280;2321;42.704;23.384;2023-07-31T13:10:25;95009.75;;;28.75;46.15